Time;durP1;ratioP1;P1;durP2;ratioP2;P2;SDS_P1;SDS_P2;PMS_P1;PMS_P2;Temp;Humidity;BMP_temperature;BMP_pressure;BME280_temperature;BME280_humidity;BME280_pressure;Samples;Min_cycle;Max_cycle;Signal;HPM_P1;HPM_P2
2023/10/16 00:01:22;;;;;;;1.60;1.30;;;;;;;5.19;100.00;98213.22;1226346;75;2923855;-67
2023/10/16 00:03:58;;;;;;;1.30;1.20;;;;;;;5.18;100.00;98210.94;1225297;75;2918051;-69
2023/10/16 00:06:34;;;;;;;1.40;0.90;;;;;;;5.15;100.00;98209.84;1226608;75;2911858;-68
2023/10/16 00:09:14;;;;;;;0.90;0.90;;;;;;;5.25;100.00;98213.47;1225186;75;2913478;-70
2023/10/16 00:11:47;;;;;;;1.75;1.45;;;;;;;4.93;100.00;98214.22;1225799;75;2919170;-68
2023/10/16 00:14:23;;;;;;;1.85;1.30;;;;;;;4.88;100.00;98221.72;1225975;75;2916619;-69
2023/10/16 00:16:56;;;;;;;1.75;0.95;;;;;;;5.02;100.00;98215.16;1225497;75;2918521;-70
2023/10/16 00:19:33;;;;;;;1.45;1.10;;;;;;;4.82;100.00;98211.78;1226013;75;2915809;-73
2023/10/16 00:22:16;;;;;;;1.50;1.20;;;;;;;4.67;100.00;98217.53;1225368;75;2913242;-67
2023/10/16 00:24:48;;;;;;;1.40;1.20;;;;;;;4.89;100.00;98211.63;1224928;75;2924652;-72
2023/10/16 00:27:21;;;;;;;0.90;0.90;;;;;;;4.94;100.00;98208.41;1225989;75;2926960;-66
2023/10/16 00:29:55;;;;;;;1.35;1.05;;;;;;;4.74;100.00;98208.47;1225693;75;2915757;-68
2023/10/16 00:32:30;;;;;;;1.50;1.20;;;;;;;4.51;100.00;98209.38;1224425;75;2937365;-69
2023/10/16 00:35:03;;;;;;;1.30;1.00;;;;;;;4.36;100.00;98210.88;1224851;75;2922485;-66
2023/10/16 00:37:41;;;;;;;0.85;0.85;;;;;;;4.56;100.00;98224.38;1224197;75;2918129;-69
2023/10/16 00:40:26;;;;;;;2.35;1.20;;;;;;;4.52;100.00;98212.84;1225862;75;2916323;-68
2023/10/16 00:42:59;;;;;;;1.70;1.25;;;;;;;4.53;100.00;98208.97;1225903;75;2911456;-69
2023/10/16 00:45:31;;;;;;;0.80;0.80;;;;;;;4.78;100.00;98211.09;1225289;83;2912798;-67
2023/10/16 00:48:06;;;;;;;1.45;0.85;;;;;;;4.65;100.00;98211.75;1221675;68;3084655;-69
2023/10/16 00:50:39;;;;;;;0.80;0.80;;;;;;;4.67;100.00;98214.06;1226246;75;2910570;-70
2023/10/16 00:53:15;;;;;;;1.25;1.00;;;;;;;4.68;100.00;98216.34;1225137;75;2935182;-68
2023/10/16 00:55:48;;;;;;;0.95;0.85;;;;;;;4.70;100.00;98213.22;1225762;75;2919633;-70
2023/10/16 00:58:20;;;;;;;0.70;0.70;;;;;;;4.73;100.00;98212.34;1224656;75;2919669;-70
2023/10/16 01:00:57;;;;;;;0.60;0.60;;;;;;;4.81;100.00;98226.50;1225848;75;2924676;-72
2023/10/16 01:03:31;;;;;;;1.05;0.70;;;;;;;4.54;100.00;98224.03;1226061;75;2915807;-70
2023/10/16 01:06:04;;;;;;;4.70;1.85;;;;;;;3.82;100.00;98231.69;1224399;75;2920984;-68
2023/10/16 01:08:46;;;;;;;1.85;1.55;;;;;;;4.27;100.00;98220.31;1222209;75;3047928;-67
2023/10/16 01:11:20;;;;;;;2.05;1.60;;;;;;;4.07;100.00;98230.41;1225494;75;2920006;-71
2023/10/16 01:13:54;;;;;;;1.60;1.40;;;;;;;4.29;100.00;98222.63;1225604;67;2914070;-70
2023/10/16 01:16:27;;;;;;;2.05;1.15;;;;;;;4.38;100.00;98230.19;1223567;75;2980036;-68
2023/10/16 01:19:06;;;;;;;2.45;1.60;;;;;;;3.91;100.00;98233.81;1224806;75;2930819;-66
2023/10/16 01:21:39;;;;;;;2.45;1.60;;;;;;;4.32;100.00;98229.16;1225694;75;2927545;-71
2023/10/16 01:24:16;;;;;;;1.60;1.40;;;;;;;4.23;100.00;98221.56;1225751;75;2910359;-66
2023/10/16 01:26:49;;;;;;;1.20;1.10;;;;;;;4.17;100.00;98229.44;1225473;75;2917242;-71
2023/10/16 01:29:21;;;;;;;1.15;0.90;;;;;;;4.35;100.00;98233.72;1225421;75;2909720;-68
2023/10/16 01:31:54;;;;;;;0.95;0.95;;;;;;;4.27;100.00;98231.16;1225187;75;2917389;-68
2023/10/16 01:34:30;;;;;;;2.30;2.05;;;;;;;4.25;100.00;98224.63;1224732;75;2920604;-70
2023/10/16 01:37:08;;;;;;;2.00;1.50;;;;;;;4.46;100.00;98229.59;1224564;75;2913276;-66
2023/10/16 01:39:53;;;;;;;1.60;1.30;;;;;;;4.66;100.00;98232.25;1224642;75;2922273;-68
2023/10/16 01:42:26;;;;;;;1.05;1.00;;;;;;;4.72;100.00;98229.81;1224193;75;2919765;-68
2023/10/16 01:44:59;;;;;;;1.50;1.25;;;;;;;4.46;100.00;98231.56;1224735;75;2927414;-71
2023/10/16 01:47:34;;;;;;;1.40;1.30;;;;;;;4.73;100.00;98234.06;1224442;75;2930819;-68
2023/10/16 01:50:17;;;;;;;2.85;1.45;;;;;;;4.35;100.00;98233.72;1224755;75;2917881;-69
2023/10/16 01:52:50;;;;;;;1.45;1.30;;;;;;;4.59;100.00;98248.69;1226554;75;2922637;-71
2023/10/16 01:55:26;;;;;;;1.50;1.20;;;;;;;4.78;100.00;98238.97;1225741;75;2921804;-67
2023/10/16 01:57:59;;;;;;;1.40;1.30;;;;;;;4.86;100.00;98248.50;1226788;75;2922297;-72
2023/10/16 02:00:34;;;;;;;1.05;0.95;;;;;;;4.99;100.00;98245.88;1226573;75;2914234;-67
2023/10/16 02:03:09;;;;;;;0.90;0.90;;;;;;;5.09;100.00;98236.72;1225990;75;2915097;-68
2023/10/16 02:05:42;;;;;;;1.20;0.90;;;;;;;5.10;100.00;98242.91;1225928;75;2910593;-69
2023/10/16 02:08:15;;;;;;;1.60;1.30;;;;;;;5.10;100.00;98243.69;1225201;75;2934606;-68
2023/10/16 02:10:52;;;;;;;1.65;1.30;;;;;;;5.23;100.00;98243.75;1226353;75;2915417;-68
2023/10/16 02:13:25;;;;;;;1.35;1.15;;;;;;;5.25;100.00;98246.03;1224566;75;2925683;-69
2023/10/16 02:15:58;;;;;;;1.65;1.40;;;;;;;5.27;100.00;98246.38;1224251;75;2963026;-71
2023/10/16 02:18:36;;;;;;;1.50;1.35;;;;;;;5.31;100.00;98241.63;1225586;75;2915894;-71
2023/10/16 02:21:11;;;;;;;1.70;1.40;;;;;;;5.32;100.00;98246.63;1225837;75;2924686;-69
2023/10/16 02:23:46;;;;;;;4.95;2.25;;;;;;;5.14;100.00;98246.28;1224042;75;2922316;-70
2023/10/16 02:26:21;;;;;;;3.10;2.40;;;;;;;5.08;100.00;98248.00;1226364;75;2916821;-68
2023/10/16 02:28:55;;;;;;;3.20;2.90;;;;;;;4.68;100.00;98243.47;1224861;75;2927710;-71
2023/10/16 02:31:29;;;;;;;3.30;3.00;;;;;;;5.26;100.00;98247.56;1225218;75;2919791;-72
2023/10/16 02:34:12;;;;;;;2.10;1.85;;;;;;;5.36;100.00;98249.25;1226372;75;2911565;-69
2023/10/16 02:36:47;;;;;;;2.25;2.05;;;;;;;5.34;100.00;98257.84;1225477;75;2918924;-68
2023/10/16 02:42:09;;;;;;;1.55;1.40;;;;;;;5.46;100.00;98256.38;1224694;75;2915781;-68
2023/10/16 02:44:42;;;;;;;1.60;1.45;;;;;;;5.39;100.00;98258.50;1226506;75;2911831;-69
2023/10/16 02:47:21;;;;;;;1.70;1.35;;;;;;;5.36;100.00;98260.09;1225543;75;2920048;-69
2023/10/16 02:49:56;;;;;;;1.70;1.60;;;;;;;5.34;100.00;98259.78;1225163;75;2920272;-67
2023/10/16 02:52:30;;;;;;;1.80;1.40;;;;;;;5.33;100.00;98253.56;1223700;75;2915344;-70
2023/10/16 02:55:06;;;;;;;2.05;1.85;;;;;;;5.33;100.00;98248.16;1223955;75;2936379;-68
2023/10/16 02:57:41;;;;;;;2.65;1.90;;;;;;;5.39;100.00;98248.41;1225896;75;2918761;-71
2023/10/16 03:00:25;;;;;;;2.15;1.95;;;;;;;5.46;100.00;98247.44;1225485;75;2926434;-69
2023/10/16 03:02:57;;;;;;;1.90;1.65;;;;;;;5.60;100.00;98244.38;1224297;75;2915048;-65
2023/10/16 03:05:31;;;;;;;1.90;1.60;;;;;;;5.47;100.00;98257.91;1224415;75;2921409;-68
2023/10/16 03:08:05;;;;;;;2.30;1.70;;;;;;;5.52;100.00;98260.09;1225100;75;2928363;-67
2023/10/16 03:10:40;;;;;;;2.60;2.35;;;;;;;5.08;100.00;98270.47;1225080;75;2915974;-68
2023/10/16 03:13:18;;;;;;;3.05;2.20;;;;;;;5.42;100.00;98260.38;1225622;75;2916460;-70
2023/10/16 03:15:58;;;;;;;2.30;2.00;;;;;;;5.48;100.00;98264.09;1176342;75;6917892;-71
2023/10/16 03:18:31;;;;;;;2.40;2.20;;;;;;;5.43;100.00;98259.16;1225138;75;2921328;-66
2023/10/16 03:21:26;;;;;;;2.70;2.25;;;;;;;5.51;100.00;98265.97;1224732;75;2927121;-67
2023/10/16 03:23:59;;;;;;;4.30;3.90;;;;;;;5.30;100.00;98256.41;1224895;75;2926862;-72
2023/10/16 03:26:32;;;;;;;4.85;4.35;;;;;;;5.20;100.00;98254.72;1225764;75;2927521;-69
2023/10/16 03:29:07;;;;;;;4.65;3.60;;;;;;;5.49;100.00;98258.25;1224573;75;2920234;-68
2023/10/16 03:31:40;;;;;;;4.60;3.90;;;;;;;5.00;100.00;98271.03;1225419;75;2928785;-68
2023/10/16 03:34:14;;;;;;;3.35;3.05;;;;;;;5.09;100.00;98274.69;1225854;75;2917522;-68
2023/10/16 03:36:49;;;;;;;4.70;3.20;;;;;;;5.09;100.00;98285.56;1225096;75;2922514;-66
2023/10/16 03:39:22;;;;;;;5.20;4.55;;;;;;;4.90;100.00;98273.56;1224713;75;2903873;-69
2023/10/16 03:41:55;;;;;;;5.25;3.90;;;;;;;5.44;100.00;98275.03;1224560;75;2932070;-67
2023/10/16 03:44:30;;;;;;;3.75;3.00;;;;;;;5.59;100.00;98277.41;1226343;75;2913541;-68
2023/10/16 03:47:05;;;;;;;5.00;3.10;;;;;;;5.51;100.00;98277.59;1223390;75;2955579;-66
2023/10/16 03:49:38;;;;;;;4.75;3.95;;;;;;;5.12;100.00;98287.44;1226197;75;2923159;-69
2023/10/16 03:52:11;;;;;;;4.90;4.10;;;;;;;5.01;100.00;98281.47;1224897;75;2921606;-67
2023/10/16 03:54:44;;;;;;;4.75;4.20;;;;;;;5.22;100.00;98274.81;1225141;75;2935962;-68
2023/10/16 03:57:20;;;;;;;3.00;2.70;;;;;;;5.49;100.00;98277.25;1225142;75;2922310;-69
2023/10/16 03:59:55;;;;;;;3.50;2.65;;;;;;;5.46;100.00;98285.47;1212325;75;3832654;-67
2023/10/16 04:02:31;;;;;;;3.35;2.80;;;;;;;5.58;100.00;98276.66;1224624;75;2930722;-68
2023/10/16 04:05:21;;;;;;;2.90;2.55;;;;;;;5.52;100.00;98281.81;1183520;75;4844160;-68
2023/10/16 04:07:54;;;;;;;5.70;4.00;;;;;;;5.01;100.00;98276.06;1210369;75;4049395;-69
2023/10/16 04:10:30;;;;;;;8.35;5.15;;;;;;;4.87;100.00;98284.53;1220968;75;2989480;-69
2023/10/16 04:13:03;;;;;;;5.90;4.65;;;;;;;5.08;100.00;98277.84;1222099;75;2975050;-68
2023/10/16 04:15:59;;;;;;;4.25;3.50;;;;;;;5.30;100.00;98278.09;1224109;75;2919193;-73
2023/10/16 04:18:30;;;;;;;2.80;2.50;;;;;;;5.55;100.00;98282.91;1224624;75;2922979;-69
2023/10/16 04:23:56;;;;;;;2.50;2.30;;;;;;;5.60;100.00;98284.34;1207570;75;4083927;-68
2023/10/16 04:26:34;;;;;;;4.75;3.35;;;;;;;5.55;100.00;98278.25;1224536;75;2918592;-73
2023/10/16 04:32:07;;;;;;;4.25;3.60;;;;;;;5.53;100.00;98279.84;1207312;75;4037677;-70
2023/10/16 04:34:45;;;;;;;4.40;3.80;;;;;;;5.39;100.00;98278.28;1225108;75;2921161;-72
2023/10/16 04:37:29;;;;;;;5.05;4.55;;;;;;;4.84;100.00;98283.41;1223901;75;2926485;-70
2023/10/16 04:43:07;;;;;;;6.20;5.60;;;;;;;5.22;100.00;98301.16;1224127;75;2931860;-68
2023/10/16 04:45:59;;;;;;;5.75;4.60;;;;;;;5.38;100.00;98301.16;1223963;75;2928267;-67
2023/10/16 04:48:48;;;;;;;4.05;3.55;;;;;;;5.34;100.00;98298.56;1224282;75;2924906;-67
2023/10/16 04:51:22;;;;;;;;;;;;;;;5.47;100.00;98298.63;1225934;75;2917351;-70
2023/10/16 04:53:58;;;;;;;14.45;11.95;;;;;;;5.48;100.00;98294.75;1224227;75;2936160;-71
2023/10/16 05:02:16;;;;;;;5.10;4.15;;;;;;;5.50;100.00;98297.00;1224933;75;2928657;-71
2023/10/16 05:07:53;;;;;;;3.20;2.70;;;;;;;5.55;100.00;98304.66;1224256;75;2922798;-69
2023/10/16 05:13:39;;;;;;;2.90;2.70;;;;;;;5.33;100.00;98317.97;1223315;75;2927224;-67
2023/10/16 05:19:16;;;;;;;3.10;2.50;;;;;;;5.30;100.00;98318.84;1224313;75;2921938;-65
2023/10/16 05:22:02;;;;;;;2.70;2.50;;;;;;;5.29;100.00;98320.00;1223864;75;2924347;-69
2023/10/16 06:14:34;;;;;;;3.45;3.10;;;;;;;5.05;100.00;98362.81;1219710;75;3333835;-70
2023/10/16 06:17:15;;;;;;;7.05;6.45;;;;;;;4.32;100.00;98361.94;1223808;75;2928348;-68
2023/10/16 06:19:51;;;;;;;6.10;5.50;;;;;;;4.95;100.00;98369.22;1224470;75;2922063;-66
2023/10/16 06:22:23;;;;;;;5.30;4.80;;;;;;;4.64;100.00;98372.16;1224126;75;2925618;-69
2023/10/16 06:24:56;;;;;;;6.65;6.05;;;;;;;4.52;100.00;98364.66;1217480;75;2926071;-70
2023/10/16 06:27:33;;;;;;;5.05;4.55;;;;;;;5.09;100.00;98368.91;1220974;75;2926627;-69
2023/10/16 06:30:08;;;;;;;3.85;3.50;;;;;;;5.29;100.00;98368.88;1222469;67;2922639;-70
2023/10/16 06:32:41;;;;;;;6.45;5.70;;;;;;;4.89;100.00;98371.69;1224637;75;2943286;-67
2023/10/16 06:35:16;;;;;;;5.65;5.15;;;;;;;5.08;100.00;98368.16;1223767;75;2922758;-70
2023/10/16 06:37:55;;;;;;;5.10;4.60;;;;;;;5.05;100.00;98376.38;1224997;75;2924527;-70
2023/10/16 06:40:28;;;;;;;5.60;5.10;;;;;;;4.81;100.00;98381.13;1224846;75;2922723;-68
2023/10/16 06:43:14;;;;;;;5.50;5.00;;;;;;;4.96;100.00;98384.34;1224357;75;2921081;-70
2023/10/16 06:45:55;;;;;;;6.70;6.10;;;;;;;4.80;100.00;98382.31;1223736;75;2920989;-68
2023/10/16 06:48:28;;;;;;;6.15;5.55;;;;;;;5.24;100.00;98378.31;1224124;75;2919906;-70
2023/10/16 06:51:05;;;;;;;7.40;6.15;;;;;;;4.92;100.00;98373.53;1224539;75;2922755;-66
2023/10/16 06:53:38;;;;;;;6.35;5.75;;;;;;;5.20;100.00;98372.19;1221637;75;2948806;-71
2023/10/16 06:56:14;;;;;;;5.70;5.15;;;;;;;5.48;100.00;98368.06;1223954;75;2939346;-67
2023/10/16 06:58:49;;;;;;;8.00;7.20;;;;;;;5.12;100.00;98378.94;1224296;75;2924131;-69
2023/10/16 07:01:22;;;;;;;7.45;6.75;;;;;;;5.31;100.00;98371.91;1224491;75;2929260;-66
2023/10/16 07:03:55;;;;;;;7.10;6.40;;;;;;;5.32;100.00;98371.50;1222610;75;2932517;-72
2023/10/16 07:06:32;;;;;;;6.05;5.45;;;;;;;6.23;100.00;98367.41;1225390;75;2918093;-68
2023/10/16 07:09:06;;;;;;;5.45;4.95;;;;;;;6.61;100.00;98368.31;1223450;75;2928988;-66
2023/10/16 07:11:42;;;;;;;5.30;4.80;;;;;;;6.85;100.00;98370.00;1223371;75;2931480;-68
2023/10/16 07:14:17;;;;;;;7.60;6.60;;;;;;;5.76;100.00;98382.13;1222806;75;2922529;-68
2023/10/16 07:16:50;;;;;;;6.65;6.05;;;;;;;6.13;100.00;98375.44;1222470;75;3009832;-69
2023/10/16 07:19:22;;;;;;;5.90;5.40;;;;;;;6.03;100.00;98360.13;1224641;75;2923313;-68
2023/10/16 07:21:56;;;;;;;4.60;4.20;;;;;;;6.98;100.00;98363.38;1223615;75;2921717;-68
2023/10/16 07:24:34;;;;;;;4.35;3.95;;;;;;;6.44;100.00;98364.13;1223579;75;2922624;-71
2023/10/16 07:27:12;;;;;;;5.70;5.10;;;;;;;7.06;100.00;98365.91;1225369;75;2920728;-65
2023/10/16 07:29:50;;;;;;;5.60;4.75;;;;;;;9.92;92.53;98360.53;1224165;75;2921277;-70
2023/10/16 07:32:23;;;;;;;6.30;5.70;;;;;;;9.92;90.88;98357.81;1220938;75;3017115;-69
2023/10/16 07:34:56;;;;;;;5.50;5.00;;;;;;;13.56;72.84;98351.63;1223425;75;2925929;-69
2023/10/16 07:37:29;;;;;;;5.80;5.30;;;;;;;12.47;70.92;98364.09;1212702;75;3787187;-68
2023/10/16 07:40:02;;;;;;;4.70;4.30;;;;;;;12.19;74.72;98354.56;1221499;75;3085487;-67
2023/10/16 07:42:35;;;;;;;4.20;3.80;;;;;;;11.39;76.12;98365.06;1224147;75;2933400;-67
2023/10/16 07:45:12;;;;;;;4.95;4.45;;;;;;;10.59;81.00;98369.84;1224486;75;2918863;-68
2023/10/16 07:47:47;;;;;;;4.90;4.45;;;;;;;13.02;71.75;98356.53;1224220;75;2925242;-66
2023/10/16 07:50:20;;;;;;;4.55;4.00;;;;;;;15.93;61.92;98357.41;1224498;75;2923151;-67
2023/10/16 07:52:54;;;;;;;4.00;3.60;;;;;;;14.58;63.13;98348.88;1219240;75;3102138;-75
2023/10/16 07:55:38;;;;;;;5.35;4.75;;;;;;;16.08;59.60;98335.13;1223741;75;2922381;-68
2023/10/16 07:58:15;;;;;;;5.10;4.55;;;;;;;18.34;56.52;98342.03;1224994;75;2926224;-68
2023/10/16 08:01:16;;;;;;;6.65;5.10;;;;;;;11.96;71.30;98364.34;1224731;75;2921921;-71
2023/10/16 08:03:49;;;;;;;5.85;4.25;;;;;;;13.52;68.51;98353.84;1224989;75;2923201;-71
2023/10/16 08:06:24;;;;;;;5.45;4.70;;;;;;;13.16;67.40;98356.53;1224023;75;2940925;-70
2023/10/16 08:09:45;;;;;;;4.30;3.70;;;;;;;12.96;67.85;98357.22;1224536;75;2919908;-69
2023/10/16 08:11:53;;;;;;;7.50;5.75;;;;;;;11.15;74.11;98362.25;1224557;75;2918947;-67
2023/10/16 08:14:26;;;;;;;6.75;6.00;;;;;;;11.72;74.73;98363.06;1223475;75;2931093;-72
2023/10/16 08:17:04;;;;;;;7.00;5.90;;;;;;;11.01;80.00;98363.66;1223892;75;2918374;-70
2023/10/16 08:19:37;;;;;;;5.90;4.80;;;;;;;10.83;84.02;98351.53;1224475;75;2927410;-69
2023/10/16 08:22:13;;;;;;;4.30;3.80;;;;;;;14.31;69.40;98344.56;1223755;75;2928246;-68
2023/10/16 08:24:57;;;;;;;4.95;4.30;;;;;;;13.61;68.42;98353.69;1223199;75;2928057;-73
2023/10/16 08:30:32;;;;;;;9.30;7.40;;;;;;;11.92;75.46;98359.75;1224780;75;2918011;-73
2023/10/16 08:33:12;;;;;;;8.50;5.85;;;;;;;10.94;80.69;98362.00;1224005;75;2933540;-66
2023/10/16 08:35:45;;;;;;;7.35;5.75;;;;;;;11.03;82.61;98358.50;1223643;75;2927750;-69
2023/10/16 08:38:20;;;;;;;6.80;5.40;;;;;;;11.04;79.50;98357.25;1224989;75;2924452;-74
2023/10/16 08:41:07;;;;;;;6.35;4.95;;;;;;;11.15;81.28;98359.53;1223972;75;2924486;-68
2023/10/16 08:43:53;;;;;;;7.80;4.55;;;;;;;11.86;78.46;98358.13;1224698;75;2923288;-69
2023/10/16 08:46:34;;;;;;;5.90;5.30;;;;;;;11.37;81.55;98360.03;1222687;83;2927018;-70
2023/10/16 08:49:09;;;;;;;6.75;5.35;;;;;;;10.51;83.44;98358.47;1223878;75;2921820;-68
2023/10/16 08:51:43;;;;;;;5.45;4.60;;;;;;;9.84;88.75;98359.28;1224193;75;2923397;-67
2023/10/16 08:57:06;;;;;;;5.65;4.80;;;;;;;10.73;87.50;98344.59;1223929;75;2918913;-68
2023/10/16 08:59:39;;;;;;;5.85;4.85;;;;;;;10.88;80.90;98342.72;1223796;75;2924831;-67
2023/10/16 09:02:14;;;;;;;8.25;5.20;;;;;;;10.14;85.42;98347.47;1224379;75;2918968;-69
2023/10/16 09:04:52;;;;;;;5.90;4.95;;;;;;;10.98;85.87;98343.44;1223980;75;2923583;-70
2023/10/16 09:07:27;;;;;;;6.80;4.50;;;;;;;11.22;89.58;98348.22;1225065;75;2917561;-67
2023/10/16 09:10:02;;;;;;;5.70;4.70;;;;;;;10.74;88.41;98340.59;1223545;75;2927628;-68
2023/10/16 09:12:44;;;;;;;5.25;4.75;;;;;;;10.49;92.13;98341.72;1220578;75;3099206;-68
2023/10/16 09:15:17;;;;;;;5.55;4.35;;;;;;;11.21;91.35;98338.50;1223569;75;2925562;-69
2023/10/16 09:17:50;;;;;;;5.50;4.65;;;;;;;10.91;88.12;98332.06;1224488;75;2925963;-69
2023/10/16 09:20:33;;;;;;;4.95;4.00;;;;;;;11.81;86.67;98325.81;1224877;75;2918428;-67
2023/10/16 09:23:07;;;;;;;3.85;3.40;;;;;;;12.28;80.68;98322.28;1223211;75;2926617;-70
2023/10/16 09:25:40;;;;;;;5.35;4.35;;;;;;;11.76;79.50;98327.25;1224425;75;2923017;-71
2023/10/16 09:28:18;;;;;;;5.90;4.45;;;;;;;12.09;81.75;98324.44;1222206;75;3005234;-67
2023/10/16 09:30:52;;;;;;;6.60;3.95;;;;;;;11.71;83.13;98312.19;1225194;75;2926155;-71
2023/10/16 09:33:25;;;;;;;3.90;3.50;;;;;;;12.01;81.16;98320.53;1223825;75;2921471;-71
2023/10/16 09:36:02;;;;;;;4.55;3.65;;;;;;;11.52;84.21;98313.53;1224903;75;2919267;-71
2023/10/16 09:38:45;;;;;;;4.80;3.35;;;;;;;12.23;79.25;98308.47;1224779;75;2936200;-70
2023/10/16 09:44:09;;;;;;;4.40;3.10;;;;;;;12.61;75.91;98298.66;1221828;75;2943851;-66
2023/10/16 09:46:57;;;;;;;4.65;3.65;;;;;;;13.91;70.97;98298.56;1220279;75;3049856;-70
2023/10/16 09:49:33;;;;;;;6.80;4.80;;;;;;;14.44;67.40;98298.13;1223117;75;2924164;-69
2023/10/16 09:52:12;;;;;;;5.40;2.65;;;;;;;13.70;67.42;98292.28;1222433;75;2929310;-68
2023/10/16 09:54:45;;;;;;;3.20;2.35;;;;;;;14.42;68.42;98289.56;1222778;75;2953982;-69
2023/10/16 09:57:22;;;;;;;4.00;2.30;;;;;;;14.59;64.24;98291.75;1223933;75;2924945;-66
2023/10/16 10:00:00;;;;;;;3.05;2.10;;;;;;;14.90;64.07;98288.25;1223727;75;2920431;-70
2023/10/16 10:02:39;;;;;;;3.50;2.10;;;;;;;14.43;63.81;98284.81;1223179;75;2935216;-66
2023/10/16 10:05:13;;;;;;;2.25;1.70;;;;;;;14.67;63.38;98282.56;1224330;75;2922281;-67
2023/10/16 10:07:50;;;;;;;2.15;1.50;;;;;;;15.08;60.68;98284.38;1220622;75;3022910;-75
2023/10/16 10:13:15;;;;;;;1.40;1.10;;;;;;;15.81;54.27;98281.28;1224809;75;2924230;-75
2023/10/16 10:15:50;;;;;;;2.55;1.60;;;;;;;15.41;50.92;98283.06;1225008;75;2928062;-70
2023/10/16 10:18:42;;;;;;;1.40;1.00;;;;;;;15.76;52.86;98264.22;1223548;75;2927481;-68
2023/10/16 10:21:28;;;;;;;1.05;0.85;;;;;;;16.09;52.30;98273.09;1224344;75;2927064;-68
2023/10/16 10:24:08;;;;;;;1.00;0.80;;;;;;;16.25;48.29;98261.31;1223430;75;2931854;-69
2023/10/16 10:26:44;;;;;;;1.05;0.60;;;;;;;15.34;48.67;98257.47;1224920;75;2917770;-70
2023/10/16 10:29:20;;;;;;;2.20;0.60;;;;;;;16.27;47.93;98258.06;1224654;75;2938624;-71
2023/10/16 10:31:56;;;;;;;1.65;0.90;;;;;;;15.68;50.75;98254.88;1224303;75;2925981;-69
2023/10/16 10:34:30;;;;;;;1.95;0.70;;;;;;;15.67;48.61;98253.34;1224816;75;2917951;-67
2023/10/16 10:37:07;;;;;;;1.40;0.70;;;;;;;16.07;48.33;98245.97;1224312;75;2927131;-73
2023/10/16 10:39:43;;;;;;;1.35;0.60;;;;;;;15.51;47.79;98246.53;1225064;75;2920658;-69
2023/10/16 10:42:23;;;;;;;0.70;0.50;;;;;;;15.73;45.91;98239.63;1224159;75;2926140;-72
2023/10/16 10:47:54;;;;;;;1.70;1.10;;;;;;;16.01;48.16;98236.91;1224813;75;2923978;-69
2023/10/16 10:50:29;;;;;;;1.10;0.70;;;;;;;16.87;48.67;98219.16;1224257;75;2932361;-72
2023/10/16 10:53:06;;;;;;;2.05;1.45;;;;;;;16.98;47.45;98228.19;1224609;75;2926178;-73
2023/10/16 10:55:57;;;;;;;1.10;0.65;;;;;;;16.36;47.33;98221.91;1224511;75;2920932;-70
2023/10/16 10:58:33;;;;;;;1.25;0.80;;;;;;;15.79;46.78;98212.75;1224144;75;2923590;-68
2023/10/16 11:03:53;;;;;;;1.65;0.70;;;;;;;16.59;46.94;98208.84;1225038;75;2923187;-67
2023/10/16 11:06:39;;;;;;;1.05;0.70;;;;;;;15.98;45.65;98200.00;1224108;75;2927293;-72
2023/10/16 11:09:18;;;;;;;1.05;0.70;;;;;;;15.92;45.40;98199.25;1224836;75;2920288;-70
2023/10/16 11:11:54;;;;;;;1.15;0.70;;;;;;;15.26;45.18;98204.00;1224827;75;2919503;-71
2023/10/16 11:14:41;;;;;;;2.75;0.80;;;;;;;16.67;46.69;98193.28;1223733;75;2926426;-72
2023/10/16 11:17:14;;;;;;;0.85;0.70;;;;;;;15.36;46.37;98193.50;1224230;75;2928780;-71
2023/10/16 11:19:53;;;;;;;1.65;0.80;;;;;;;15.50;45.84;98187.06;1224071;75;2923826;-70
2023/10/16 11:22:27;;;;;;;1.05;0.85;;;;;;;15.59;45.75;98193.63;1223680;75;2923344;-72
2023/10/16 11:25:02;;;;;;;2.30;0.95;;;;;;;15.82;44.85;98186.91;1225085;75;2916052;-66
2023/10/16 11:27:37;;;;;;;2.45;1.70;;;;;;;16.79;46.55;98185.75;1223924;75;2923108;-68
2023/10/16 11:30:15;;;;;;;1.70;1.05;;;;;;;16.45;46.64;98182.22;1223654;75;2920280;-70
2023/10/16 11:32:50;;;;;;;1.45;1.20;;;;;;;16.97;46.17;98179.66;1220768;75;3070001;-72
2023/10/16 11:35:26;;;;;;;7.40;4.35;;;;;;;15.86;47.24;98178.41;1224067;75;2914598;-71
2023/10/16 11:38:04;;;;;;;2.15;1.40;;;;;;;16.91;45.84;98176.16;1224154;75;2919835;-72
2023/10/16 11:40:39;;;;;;;2.60;1.30;;;;;;;16.53;45.90;98172.91;1224623;75;2918839;-70
2023/10/16 11:43:19;;;;;;;2.45;1.40;;;;;;;15.87;47.87;98172.38;1224807;75;2920670;-69
2023/10/16 11:45:56;;;;;;;3.40;2.40;;;;;;;15.71;48.13;98168.34;1223450;75;2926483;-69
2023/10/16 11:48:42;;;;;;;6.85;1.90;;;;;;;16.55;48.02;98167.66;1221336;75;3036347;-74
2023/10/16 11:51:18;;;;;;;1.50;0.90;;;;;;;16.24;43.50;98156.88;1224309;75;2932327;-70
2023/10/16 11:53:51;;;;;;;1.15;0.60;;;;;;;16.57;42.91;98153.31;1222364;75;3045972;-68
2023/10/16 11:56:25;;;;;;;1.05;0.45;;;;;;;16.17;42.52;98145.03;1223462;75;2935999;-70
2023/10/16 11:59:00;;;;;;;1.35;0.70;;;;;;;16.82;44.14;98141.22;1225109;75;2921420;-70
2023/10/16 12:01:33;;;;;;;1.90;1.00;;;;;;;16.47;44.18;98133.47;1224344;75;2923512;-71
2023/10/16 12:04:06;;;;;;;1.55;1.20;;;;;;;17.40;42.84;98137.75;1223705;75;2933637;-69
2023/10/16 12:06:39;;;;;;;1.30;0.80;;;;;;;16.75;43.99;98127.16;1223603;75;2921499;-70
2023/10/16 12:09:13;;;;;;;1.20;0.70;;;;;;;16.83;43.29;98119.88;1223496;75;2917804;-69
2023/10/16 12:11:46;;;;;;;1.25;0.70;;;;;;;18.02;43.63;98120.78;1186373;75;5859245;-73
2023/10/16 12:14:23;;;;;;;1.05;0.65;;;;;;;18.07;43.71;98124.78;1222389;75;2918036;-71
2023/10/16 12:16:57;;;;;;;2.60;0.70;;;;;;;17.32;41.25;98109.13;1220817;75;2959725;-75
2023/10/16 12:19:30;;;;;;;1.10;0.60;;;;;;;16.92;40.27;98118.84;1223403;75;2919837;-71
2023/10/16 12:22:03;;;;;;;1.95;0.60;;;;;;;17.66;39.11;98106.91;1223113;75;2942335;-68
2023/10/16 12:24:35;;;;;;;1.05;0.60;;;;;;;16.95;39.15;98110.25;1222063;75;2924059;-71
2023/10/16 12:27:08;;;;;;;1.60;1.00;;;;;;;17.21;40.77;98106.41;1224810;75;2927273;-70
2023/10/16 12:29:44;;;;;;;0.80;0.60;;;;;;;16.18;41.27;98098.84;1221117;75;2924710;-66
2023/10/16 12:32:16;;;;;;;2.45;0.80;;;;;;;17.09;40.80;98091.13;1223251;75;2928597;-72
2023/10/16 12:34:51;;;;;;;1.80;1.00;;;;;;;16.59;42.62;98101.78;1224041;75;2913156;-70
2023/10/16 12:37:25;;;;;;;2.65;0.80;;;;;;;17.41;42.79;98094.22;1224438;75;2929407;-65
2023/10/16 12:39:57;;;;;;;1.35;0.65;;;;;;;17.21;39.86;98079.47;1223021;75;2925295;-69
2023/10/16 12:42:32;;;;;;;0.60;0.50;;;;;;;16.54;40.24;98085.22;1224817;75;2920599;-66
2023/10/16 12:45:11;;;;;;;0.50;0.40;;;;;;;17.62;37.97;98080.75;1223167;75;2923107;-66
2023/10/16 12:47:43;;;;;;;1.65;0.55;;;;;;;17.27;40.59;98082.25;1224338;75;2924796;-66
2023/10/16 12:50:17;;;;;;;1.20;0.70;;;;;;;17.28;41.19;98075.44;1224409;75;2926067;-72
2023/10/16 12:52:50;;;;;;;1.50;0.75;;;;;;;18.10;41.43;98080.16;1223710;75;2922019;-73
2023/10/16 12:55:23;;;;;;;1.20;0.75;;;;;;;18.61;40.87;98076.16;1224025;75;2923220;-68
2023/10/16 12:57:57;;;;;;;1.05;0.50;;;;;;;17.74;40.52;98064.81;1223978;75;2932321;-71
2023/10/16 13:00:38;;;;;;;0.90;0.40;;;;;;;17.82;38.35;98063.78;1224194;75;2927698;-70
2023/10/16 13:03:16;;;;;;;0.80;0.60;;;;;;;17.88;37.25;98067.25;1224847;75;2923868;-68
2023/10/16 13:05:51;;;;;;;1.60;0.60;;;;;;;17.97;41.48;98065.44;1223889;75;2922916;-67
2023/10/16 13:08:26;;;;;;;0.90;0.45;;;;;;;17.56;40.40;98063.47;1223786;75;2922130;-70
2023/10/16 13:10:59;;;;;;;3.00;0.60;;;;;;;17.99;42.20;98060.88;1223429;75;2938025;-68
2023/10/16 13:13:31;;;;;;;0.80;0.55;;;;;;;18.30;41.87;98067.91;1224333;75;2928403;-70
2023/10/16 13:16:08;;;;;;;1.80;0.80;;;;;;;19.14;39.45;98065.47;1218375;75;3200696;-66
2023/10/16 13:18:40;;;;;;;1.55;0.70;;;;;;;19.55;36.99;98061.63;1223957;75;2940332;-68
2023/10/16 13:21:14;;;;;;;3.25;1.75;;;;;;;18.15;40.53;98055.72;1224509;75;2933413;-70
2023/10/16 13:23:47;;;;;;;1.95;0.95;;;;;;;17.50;42.17;98066.25;1223797;75;2928205;-67
2023/10/16 13:26:20;;;;;;;2.15;0.75;;;;;;;17.85;41.62;98059.25;1221983;75;2983434;-70
2023/10/16 13:28:52;;;;;;;2.25;0.90;;;;;;;17.85;41.58;98054.44;1223605;75;2921830;-68
2023/10/16 13:31:29;;;;;;;1.25;0.70;;;;;;;17.18;42.55;98052.84;1223874;75;2925265;-68